sensor_id;sensor_type;location;lat;lon;timestamp;temperature;humidity
65038;DHT22;51605;47.040;15.294;2024-03-17T00:00:40;21.30;51.00
65038;DHT22;51605;47.040;15.294;2024-03-17T00:03:06;21.30;50.90
65038;DHT22;51605;47.040;15.294;2024-03-17T00:05:34;21.30;50.90
65038;DHT22;51605;47.040;15.294;2024-03-17T00:07:59;21.30;50.90
65038;DHT22;51605;47.040;15.294;2024-03-17T00:10:24;21.30;51.00
65038;DHT22;51605;47.040;15.294;2024-03-17T00:12:50;21.30;51.00
65038;DHT22;51605;47.040;15.294;2024-03-17T00:15:16;21.30;50.90
65038;DHT22;51605;47.040;15.294;2024-03-17T00:17:42;21.30;50.90
65038;DHT22;51605;47.040;15.294;2024-03-17T00:20:07;21.30;50.90
65038;DHT22;51605;47.040;15.294;2024-03-17T00:22:45;21.30;51.00
65038;DHT22;51605;47.040;15.294;2024-03-17T00:25:11;21.30;51.00
65038;DHT22;51605;47.040;15.294;2024-03-17T00:27:37;21.30;50.90
65038;DHT22;51605;47.040;15.294;2024-03-17T00:30:06;21.30;51.00
65038;DHT22;51605;47.040;15.294;2024-03-17T00:32:35;21.30;50.90
65038;DHT22;51605;47.040;15.294;2024-03-17T00:35:01;21.30;50.90
65038;DHT22;51605;47.040;15.294;2024-03-17T00:37:26;21.30;50.90
65038;DHT22;51605;47.040;15.294;2024-03-17T00:39:52;21.30;50.90
65038;DHT22;51605;47.040;15.294;2024-03-17T00:42:18;21.30;51.00
65038;DHT22;51605;47.040;15.294;2024-03-17T00:44:44;21.30;51.00
65038;DHT22;51605;47.040;15.294;2024-03-17T00:47:09;21.30;50.90
65038;DHT22;51605;47.040;15.294;2024-03-17T00:49:35;21.30;50.90
65038;DHT22;51605;47.040;15.294;2024-03-17T00:52:00;21.30;51.00
65038;DHT22;51605;47.040;15.294;2024-03-17T00:54:26;21.30;51.00
65038;DHT22;51605;47.040;15.294;2024-03-17T00:56:51;21.30;51.00
65038;DHT22;51605;47.040;15.294;2024-03-17T00:59:17;21.30;51.00
65038;DHT22;51605;47.040;15.294;2024-03-17T01:01:42;21.30;51.00
65038;DHT22;51605;47.040;15.294;2024-03-17T01:04:09;21.30;51.00
65038;DHT22;51605;47.040;15.294;2024-03-17T01:06:34;21.30;51.10
65038;DHT22;51605;47.040;15.294;2024-03-17T01:09:00;21.30;51.00
65038;DHT22;51605;47.040;15.294;2024-03-17T01:11:25;21.30;51.00
65038;DHT22;51605;47.040;15.294;2024-03-17T01:13:52;21.30;51.00
65038;DHT22;51605;47.040;15.294;2024-03-17T01:16:17;21.30;51.00
65038;DHT22;51605;47.040;15.294;2024-03-17T01:18:43;21.30;51.00
65038;DHT22;51605;47.040;15.294;2024-03-17T01:21:11;21.30;51.10
65038;DHT22;51605;47.040;15.294;2024-03-17T01:23:37;21.30;51.00
65038;DHT22;51605;47.040;15.294;2024-03-17T01:26:02;21.30;51.00
65038;DHT22;51605;47.040;15.294;2024-03-17T01:28:28;21.30;51.10
65038;DHT22;51605;47.040;15.294;2024-03-17T01:30:53;21.30;51.00
65038;DHT22;51605;47.040;15.294;2024-03-17T01:33:19;21.30;51.10
65038;DHT22;51605;47.040;15.294;2024-03-17T01:35:44;21.30;51.00
65038;DHT22;51605;47.040;15.294;2024-03-17T01:38:10;21.30;51.00
65038;DHT22;51605;47.040;15.294;2024-03-17T01:40:36;21.30;51.00
65038;DHT22;51605;47.040;15.294;2024-03-17T01:43:01;21.30;51.10
65038;DHT22;51605;47.040;15.294;2024-03-17T01:45:33;21.30;51.20
65038;DHT22;51605;47.040;15.294;2024-03-17T01:47:59;21.30;51.10
65038;DHT22;51605;47.040;15.294;2024-03-17T01:50:29;21.30;51.20
65038;DHT22;51605;47.040;15.294;2024-03-17T01:52:56;21.20;52.10
65038;DHT22;51605;47.040;15.294;2024-03-17T01:55:25;21.30;51.10
65038;DHT22;51605;47.040;15.294;2024-03-17T01:57:51;21.30;51.00
65038;DHT22;51605;47.040;15.294;2024-03-17T02:00:17;21.30;51.00
65038;DHT22;51605;47.040;15.294;2024-03-17T02:02:42;21.30;51.00
65038;DHT22;51605;47.040;15.294;2024-03-17T02:05:08;21.30;51.10
65038;DHT22;51605;47.040;15.294;2024-03-17T02:07:34;21.30;51.00
65038;DHT22;51605;47.040;15.294;2024-03-17T02:09:59;21.30;51.00
65038;DHT22;51605;47.040;15.294;2024-03-17T02:12:25;21.30;51.00
65038;DHT22;51605;47.040;15.294;2024-03-17T02:14:50;21.30;51.00
65038;DHT22;51605;47.040;15.294;2024-03-17T02:17:16;21.30;51.00
65038;DHT22;51605;47.040;15.294;2024-03-17T02:19:42;21.30;51.00
65038;DHT22;51605;47.040;15.294;2024-03-17T02:22:13;21.30;51.00
65038;DHT22;51605;47.040;15.294;2024-03-17T02:24:42;21.20;51.10
65038;DHT22;51605;47.040;15.294;2024-03-17T02:27:08;21.30;51.10
65038;DHT22;51605;47.040;15.294;2024-03-17T02:29:34;21.30;51.10
65038;DHT22;51605;47.040;15.294;2024-03-17T02:32:02;21.30;51.10
65038;DHT22;51605;47.040;15.294;2024-03-17T02:34:35;21.30;51.10
65038;DHT22;51605;47.040;15.294;2024-03-17T02:37:01;21.30;51.10
65038;DHT22;51605;47.040;15.294;2024-03-17T02:39:28;21.30;51.10
65038;DHT22;51605;47.040;15.294;2024-03-17T02:42:03;21.30;51.00
65038;DHT22;51605;47.040;15.294;2024-03-17T02:44:30;21.30;51.20
65038;DHT22;51605;47.040;15.294;2024-03-17T02:46:57;21.30;51.10
65038;DHT22;51605;47.040;15.294;2024-03-17T02:49:23;21.20;51.00
65038;DHT22;51605;47.040;15.294;2024-03-17T02:51:48;21.30;52.10
65038;DHT22;51605;47.040;15.294;2024-03-17T02:54:14;21.30;51.10
65038;DHT22;51605;47.040;15.294;2024-03-17T02:56:40;21.30;51.10
65038;DHT22;51605;47.040;15.294;2024-03-17T02:59:07;21.30;51.20
65038;DHT22;51605;47.040;15.294;2024-03-17T03:01:32;21.30;51.20
65038;DHT22;51605;47.040;15.294;2024-03-17T03:03:58;21.20;51.10
65038;DHT22;51605;47.040;15.294;2024-03-17T03:06:23;21.20;51.10
65038;DHT22;51605;47.040;15.294;2024-03-17T03:08:50;21.30;51.20
65038;DHT22;51605;47.040;15.294;2024-03-17T03:11:16;21.20;51.10
65038;DHT22;51605;47.040;15.294;2024-03-17T03:13:42;21.30;51.20
65038;DHT22;51605;47.040;15.294;2024-03-17T03:16:11;21.30;51.20
65038;DHT22;51605;47.040;15.294;2024-03-17T03:18:38;21.30;51.20
65038;DHT22;51605;47.040;15.294;2024-03-17T03:21:07;21.30;51.30
65038;DHT22;51605;47.040;15.294;2024-03-17T03:23:33;21.30;51.20
65038;DHT22;51605;47.040;15.294;2024-03-17T03:25:59;21.30;51.10
65038;DHT22;51605;47.040;15.294;2024-03-17T03:28:28;21.30;51.20
65038;DHT22;51605;47.040;15.294;2024-03-17T03:30:53;21.30;51.10
65038;DHT22;51605;47.040;15.294;2024-03-17T03:33:19;21.30;51.10
65038;DHT22;51605;47.040;15.294;2024-03-17T03:35:45;21.30;51.20
65038;DHT22;51605;47.040;15.294;2024-03-17T03:38:11;21.30;51.20
65038;DHT22;51605;47.040;15.294;2024-03-17T03:40:37;21.20;51.10
65038;DHT22;51605;47.040;15.294;2024-03-17T03:43:02;21.30;51.20
65038;DHT22;51605;47.040;15.294;2024-03-17T03:45:28;21.30;51.20
65038;DHT22;51605;47.040;15.294;2024-03-17T03:47:53;21.30;51.10
65038;DHT22;51605;47.040;15.294;2024-03-17T03:50:20;21.30;51.20
65038;DHT22;51605;47.040;15.294;2024-03-17T03:52:48;21.30;51.20
65038;DHT22;51605;47.040;15.294;2024-03-17T03:55:15;21.30;51.20
65038;DHT22;51605;47.040;15.294;2024-03-17T03:57:41;21.30;51.20
65038;DHT22;51605;47.040;15.294;2024-03-17T04:00:07;21.30;51.30
65038;DHT22;51605;47.040;15.294;2024-03-17T04:02:41;21.30;51.30
65038;DHT22;51605;47.040;15.294;2024-03-17T04:05:07;21.30;51.20
65038;DHT22;51605;47.040;15.294;2024-03-17T04:07:32;21.30;51.20
65038;DHT22;51605;47.040;15.294;2024-03-17T04:09:59;21.30;51.20
65038;DHT22;51605;47.040;15.294;2024-03-17T04:12:25;21.20;51.20
65038;DHT22;51605;47.040;15.294;2024-03-17T04:14:51;21.30;51.30
65038;DHT22;51605;47.040;15.294;2024-03-17T04:17:21;21.30;51.30
65038;DHT22;51605;47.040;15.294;2024-03-17T04:19:47;21.20;51.20
65038;DHT22;51605;47.040;15.294;2024-03-17T04:22:16;21.30;51.30
65038;DHT22;51605;47.040;15.294;2024-03-17T04:24:42;21.30;51.30
65038;DHT22;51605;47.040;15.294;2024-03-17T04:27:08;21.30;51.30
65038;DHT22;51605;47.040;15.294;2024-03-17T04:29:34;21.30;51.30
65038;DHT22;51605;47.040;15.294;2024-03-17T04:32:00;21.30;51.20
65038;DHT22;51605;47.040;15.294;2024-03-17T04:34:27;21.30;51.20
65038;DHT22;51605;47.040;15.294;2024-03-17T04:36:52;21.30;51.20
65038;DHT22;51605;47.040;15.294;2024-03-17T04:39:19;21.30;51.20
65038;DHT22;51605;47.040;15.294;2024-03-17T04:41:45;21.30;51.30
65038;DHT22;51605;47.040;15.294;2024-03-17T04:44:10;21.30;51.20
65038;DHT22;51605;47.040;15.294;2024-03-17T04:46:36;21.30;51.20
65038;DHT22;51605;47.040;15.294;2024-03-17T04:49:01;21.30;51.30
65038;DHT22;51605;47.040;15.294;2024-03-17T04:51:29;21.30;51.20
65038;DHT22;51605;47.040;15.294;2024-03-17T04:53:54;21.30;51.20
65038;DHT22;51605;47.040;15.294;2024-03-17T04:56:20;21.30;51.20
65038;DHT22;51605;47.040;15.294;2024-03-17T04:58:46;21.30;51.20
65038;DHT22;51605;47.040;15.294;2024-03-17T05:01:11;21.30;51.30
65038;DHT22;51605;47.040;15.294;2024-03-17T05:03:38;21.30;51.20
65038;DHT22;51605;47.040;15.294;2024-03-17T05:06:04;21.30;51.30
65038;DHT22;51605;47.040;15.294;2024-03-17T05:08:33;21.30;51.20
65038;DHT22;51605;47.040;15.294;2024-03-17T05:11:00;21.30;51.20
65038;DHT22;51605;47.040;15.294;2024-03-17T05:13:27;21.30;51.20
65038;DHT22;51605;47.040;15.294;2024-03-17T05:15:53;21.30;51.20
65038;DHT22;51605;47.040;15.294;2024-03-17T05:18:18;21.30;51.20
65038;DHT22;51605;47.040;15.294;2024-03-17T05:20:45;21.30;51.20
65038;DHT22;51605;47.040;15.294;2024-03-17T05:23:12;21.30;51.20
65038;DHT22;51605;47.040;15.294;2024-03-17T05:25:38;21.30;52.10
65038;DHT22;51605;47.040;15.294;2024-03-17T05:28:03;21.30;51.10
65038;DHT22;51605;47.040;15.294;2024-03-17T05:30:29;21.30;51.20
65038;DHT22;51605;47.040;15.294;2024-03-17T05:32:55;21.30;51.10
65038;DHT22;51605;47.040;15.294;2024-03-17T05:35:21;21.30;51.20
65038;DHT22;51605;47.040;15.294;2024-03-17T05:37:48;21.30;52.10
65038;DHT22;51605;47.040;15.294;2024-03-17T05:40:14;21.30;51.20
65038;DHT22;51605;47.040;15.294;2024-03-17T05:42:42;21.30;51.20
65038;DHT22;51605;47.040;15.294;2024-03-17T05:45:09;21.30;51.20
65038;DHT22;51605;47.040;15.294;2024-03-17T05:47:39;21.30;51.20
65038;DHT22;51605;47.040;15.294;2024-03-17T05:50:06;21.30;51.30
65038;DHT22;51605;47.040;15.294;2024-03-17T05:52:32;21.30;51.30
65038;DHT22;51605;47.040;15.294;2024-03-17T05:54:57;21.30;51.30
65038;DHT22;51605;47.040;15.294;2024-03-17T05:57:23;21.30;51.30
65038;DHT22;51605;47.040;15.294;2024-03-17T05:59:49;21.30;51.30
65038;DHT22;51605;47.040;15.294;2024-03-17T06:02:15;21.30;51.30
65038;DHT22;51605;47.040;15.294;2024-03-17T06:04:41;21.30;51.40
65038;DHT22;51605;47.040;15.294;2024-03-17T06:07:06;21.30;51.30
65038;DHT22;51605;47.040;15.294;2024-03-17T06:09:32;21.30;51.30
65038;DHT22;51605;47.040;15.294;2024-03-17T06:11:58;21.30;51.20
65038;DHT22;51605;47.040;15.294;2024-03-17T06:14:23;21.30;51.10
65038;DHT22;51605;47.040;15.294;2024-03-17T06:16:49;21.30;51.10
65038;DHT22;51605;47.040;15.294;2024-03-17T06:19:14;21.30;51.10
65038;DHT22;51605;47.040;15.294;2024-03-17T06:21:40;21.30;51.10
65038;DHT22;51605;47.040;15.294;2024-03-17T06:24:06;21.30;51.20
65038;DHT22;51605;47.040;15.294;2024-03-17T06:26:32;21.30;51.10
65038;DHT22;51605;47.040;15.294;2024-03-17T06:29:02;21.30;51.00
65038;DHT22;51605;47.040;15.294;2024-03-17T06:31:28;21.30;51.00
65038;DHT22;51605;47.040;15.294;2024-03-17T06:33:53;21.30;51.10
65038;DHT22;51605;47.040;15.294;2024-03-17T06:36:19;21.30;51.10
65038;DHT22;51605;47.040;15.294;2024-03-17T06:38:44;21.30;51.10
65038;DHT22;51605;47.040;15.294;2024-03-17T06:41:10;21.30;51.00
65038;DHT22;51605;47.040;15.294;2024-03-17T06:43:35;21.30;50.90
65038;DHT22;51605;47.040;15.294;2024-03-17T06:46:01;21.30;50.90
65038;DHT22;51605;47.040;15.294;2024-03-17T06:48:27;21.30;50.70
65038;DHT22;51605;47.040;15.294;2024-03-17T06:50:53;21.30;50.70
65038;DHT22;51605;47.040;15.294;2024-03-17T06:53:22;21.30;50.50
65038;DHT22;51605;47.040;15.294;2024-03-17T06:55:55;21.30;50.60
65038;DHT22;51605;47.040;15.294;2024-03-17T06:58:21;21.30;50.50
65038;DHT22;51605;47.040;15.294;2024-03-17T07:00:57;21.30;50.50
65038;DHT22;51605;47.040;15.294;2024-03-17T07:03:25;21.20;50.60
65038;DHT22;51605;47.040;15.294;2024-03-17T07:05:51;21.20;50.50
65038;DHT22;51605;47.040;15.294;2024-03-17T07:08:17;21.20;50.50
65038;DHT22;51605;47.040;15.294;2024-03-17T07:10:54;21.20;50.60
65038;DHT22;51605;47.040;15.294;2024-03-17T07:13:19;21.20;50.60
65038;DHT22;51605;47.040;15.294;2024-03-17T07:15:48;21.20;50.60
65038;DHT22;51605;47.040;15.294;2024-03-17T07:18:13;21.20;51.60
65038;DHT22;51605;47.040;15.294;2024-03-17T07:20:39;21.20;50.70
65038;DHT22;51605;47.040;15.294;2024-03-17T07:23:04;21.20;50.70
65038;DHT22;51605;47.040;15.294;2024-03-17T07:25:30;21.20;50.70
65038;DHT22;51605;47.040;15.294;2024-03-17T07:27:55;21.20;50.70
65038;DHT22;51605;47.040;15.294;2024-03-17T07:30:21;21.30;50.80
65038;DHT22;51605;47.040;15.294;2024-03-17T07:32:47;21.30;50.80
65038;DHT22;51605;47.040;15.294;2024-03-17T07:35:12;21.30;50.80
65038;DHT22;51605;47.040;15.294;2024-03-17T07:37:39;21.20;50.80
65038;DHT22;51605;47.040;15.294;2024-03-17T07:40:05;21.30;50.80
65038;DHT22;51605;47.040;15.294;2024-03-17T07:42:32;21.30;50.90
65038;DHT22;51605;47.040;15.294;2024-03-17T07:44:58;21.30;50.80
65038;DHT22;51605;47.040;15.294;2024-03-17T07:47:23;21.30;50.80
65038;DHT22;51605;47.040;15.294;2024-03-17T07:49:49;21.30;51.80
65038;DHT22;51605;47.040;15.294;2024-03-17T07:52:14;21.30;50.90
65038;DHT22;51605;47.040;15.294;2024-03-17T07:54:41;21.30;50.80
65038;DHT22;51605;47.040;15.294;2024-03-17T07:57:06;21.30;51.80
65038;DHT22;51605;47.040;15.294;2024-03-17T07:59:34;21.30;50.90
65038;DHT22;51605;47.040;15.294;2024-03-17T08:01:59;21.30;50.90
65038;DHT22;51605;47.040;15.294;2024-03-17T08:04:25;21.20;50.90
65038;DHT22;51605;47.040;15.294;2024-03-17T08:06:50;21.20;50.80
65038;DHT22;51605;47.040;15.294;2024-03-17T08:09:16;21.20;50.90
65038;DHT22;51605;47.040;15.294;2024-03-17T08:11:43;21.20;50.90
65038;DHT22;51605;47.040;15.294;2024-03-17T08:14:12;21.30;50.90
65038;DHT22;51605;47.040;15.294;2024-03-17T08:16:38;21.30;50.90
65038;DHT22;51605;47.040;15.294;2024-03-17T08:19:03;21.30;50.80
65038;DHT22;51605;47.040;15.294;2024-03-17T08:21:29;21.30;50.80
65038;DHT22;51605;47.040;15.294;2024-03-17T08:23:55;21.30;50.80
65038;DHT22;51605;47.040;15.294;2024-03-17T08:26:20;21.20;50.70
65038;DHT22;51605;47.040;15.294;2024-03-17T08:28:46;21.20;50.70
65038;DHT22;51605;47.040;15.294;2024-03-17T08:31:12;21.30;50.80
65038;DHT22;51605;47.040;15.294;2024-03-17T08:33:38;21.30;50.80
65038;DHT22;51605;47.040;15.294;2024-03-17T08:38:29;21.20;50.80
65038;DHT22;51605;47.040;15.294;2024-03-17T08:40:55;21.20;50.90
65038;DHT22;51605;47.040;15.294;2024-03-17T08:43:21;21.20;50.80
65038;DHT22;51605;47.040;15.294;2024-03-17T08:45:57;21.20;50.90
65038;DHT22;51605;47.040;15.294;2024-03-17T08:48:27;21.20;50.90
65038;DHT22;51605;47.040;15.294;2024-03-17T08:50:54;21.20;50.90
65038;DHT22;51605;47.040;15.294;2024-03-17T08:53:20;21.30;51.00
65038;DHT22;51605;47.040;15.294;2024-03-17T08:55:46;21.30;51.00
65038;DHT22;51605;47.040;15.294;2024-03-17T08:58:11;21.30;51.00
65038;DHT22;51605;47.040;15.294;2024-03-17T09:00:37;21.20;51.00
65038;DHT22;51605;47.040;15.294;2024-03-17T09:03:02;21.20;51.00
65038;DHT22;51605;47.040;15.294;2024-03-17T09:05:28;21.20;51.00
65038;DHT22;51605;47.040;15.294;2024-03-17T09:07:53;21.20;51.00
65038;DHT22;51605;47.040;15.294;2024-03-17T09:10:20;21.20;51.00
65038;DHT22;51605;47.040;15.294;2024-03-17T09:12:46;21.20;51.00
65038;DHT22;51605;47.040;15.294;2024-03-17T09:15:13;21.20;51.00
65038;DHT22;51605;47.040;15.294;2024-03-17T09:17:38;21.20;51.00
65038;DHT22;51605;47.040;15.294;2024-03-17T09:20:05;21.20;51.00
65038;DHT22;51605;47.040;15.294;2024-03-17T09:22:30;21.20;51.00
65038;DHT22;51605;47.040;15.294;2024-03-17T09:24:56;21.20;51.00
65038;DHT22;51605;47.040;15.294;2024-03-17T09:27:21;21.20;51.00
65038;DHT22;51605;47.040;15.294;2024-03-17T09:29:47;21.20;51.00
65038;DHT22;51605;47.040;15.294;2024-03-17T09:32:13;21.20;51.00
65038;DHT22;51605;47.040;15.294;2024-03-17T09:34:49;21.20;51.10
65038;DHT22;51605;47.040;15.294;2024-03-17T09:37:14;21.20;51.10
65038;DHT22;51605;47.040;15.294;2024-03-17T09:39:41;21.20;51.10
65038;DHT22;51605;47.040;15.294;2024-03-17T09:42:07;21.20;51.10
65038;DHT22;51605;47.040;15.294;2024-03-17T09:44:35;21.20;51.10
65038;DHT22;51605;47.040;15.294;2024-03-17T09:47:04;21.20;51.10
65038;DHT22;51605;47.040;15.294;2024-03-17T09:49:30;21.20;51.10
65038;DHT22;51605;47.040;15.294;2024-03-17T09:51:55;21.20;51.00
65038;DHT22;51605;47.040;15.294;2024-03-17T09:54:23;21.20;51.10
65038;DHT22;51605;47.040;15.294;2024-03-17T09:56:48;21.20;51.10
65038;DHT22;51605;47.040;15.294;2024-03-17T09:59:14;21.20;52.00
65038;DHT22;51605;47.040;15.294;2024-03-17T10:01:40;21.20;51.00
65038;DHT22;51605;47.040;15.294;2024-03-17T10:04:05;21.20;51.10
65038;DHT22;51605;47.040;15.294;2024-03-17T10:06:44;21.20;51.20
65038;DHT22;51605;47.040;15.294;2024-03-17T10:09:10;21.20;51.10
65038;DHT22;51605;47.040;15.294;2024-03-17T10:11:46;21.20;51.20
65038;DHT22;51605;47.040;15.294;2024-03-17T10:14:12;21.20;51.10
65038;DHT22;51605;47.040;15.294;2024-03-17T10:16:41;21.20;51.10
65038;DHT22;51605;47.040;15.294;2024-03-17T10:19:16;21.20;51.10
65038;DHT22;51605;47.040;15.294;2024-03-17T10:21:46;21.30;51.20
65038;DHT22;51605;47.040;15.294;2024-03-17T10:24:21;21.20;51.10
65038;DHT22;51605;47.040;15.294;2024-03-17T10:26:54;21.20;51.20
65038;DHT22;51605;47.040;15.294;2024-03-17T10:29:33;21.20;51.20
65038;DHT22;51605;47.040;15.294;2024-03-17T10:32:22;21.20;51.30
65038;DHT22;51605;47.040;15.294;2024-03-17T10:34:49;21.20;51.30
65038;DHT22;51605;47.040;15.294;2024-03-17T10:37:18;21.30;51.30
65038;DHT22;51605;47.040;15.294;2024-03-17T10:39:46;21.20;51.30
65038;DHT22;51605;47.040;15.294;2024-03-17T10:42:13;21.20;51.30
65038;DHT22;51605;47.040;15.294;2024-03-17T10:44:39;21.20;51.30
65038;DHT22;51605;47.040;15.294;2024-03-17T10:47:05;21.20;52.20
65038;DHT22;51605;47.040;15.294;2024-03-17T10:49:35;21.20;51.30
65038;DHT22;51605;47.040;15.294;2024-03-17T10:52:02;21.20;51.30
65038;DHT22;51605;47.040;15.294;2024-03-17T10:54:29;21.20;51.30
65038;DHT22;51605;47.040;15.294;2024-03-17T10:56:56;21.20;51.30
65038;DHT22;51605;47.040;15.294;2024-03-17T10:59:42;21.20;51.30
65038;DHT22;51605;47.040;15.294;2024-03-17T11:02:24;21.20;51.30
65038;DHT22;51605;47.040;15.294;2024-03-17T11:04:53;21.20;51.30
65038;DHT22;51605;47.040;15.294;2024-03-17T11:07:19;21.20;51.40
65038;DHT22;51605;47.040;15.294;2024-03-17T11:09:46;21.20;51.40
65038;DHT22;51605;47.040;15.294;2024-03-17T11:17:44;21.20;51.40
65038;DHT22;51605;47.040;15.294;2024-03-17T11:20:21;21.20;51.50
65038;DHT22;51605;47.040;15.294;2024-03-17T11:22:50;21.20;51.40
65038;DHT22;51605;47.040;15.294;2024-03-17T11:25:37;21.20;51.40
65038;DHT22;51605;47.040;15.294;2024-03-17T11:28:02;21.20;51.40
65038;DHT22;51605;47.040;15.294;2024-03-17T11:35:54;21.20;51.40
65038;DHT22;51605;47.040;15.294;2024-03-17T11:38:50;21.20;51.40
65038;DHT22;51605;47.040;15.294;2024-03-17T11:44:16;21.20;51.40
65038;DHT22;51605;47.040;15.294;2024-03-17T11:49:16;21.20;51.30
65038;DHT22;51605;47.040;15.294;2024-03-17T11:51:43;21.20;51.40
65038;DHT22;51605;47.040;15.294;2024-03-17T11:54:13;21.20;51.30
65038;DHT22;51605;47.040;15.294;2024-03-17T11:56:39;21.20;51.30
65038;DHT22;51605;47.040;15.294;2024-03-17T11:59:04;21.20;51.40
65038;DHT22;51605;47.040;15.294;2024-03-17T12:01:30;21.20;51.30
65038;DHT22;51605;47.040;15.294;2024-03-17T12:03:56;21.20;51.30
65038;DHT22;51605;47.040;15.294;2024-03-17T12:06:22;21.20;51.30
65038;DHT22;51605;47.040;15.294;2024-03-17T12:08:48;21.20;51.20
65038;DHT22;51605;47.040;15.294;2024-03-17T12:11:17;21.20;51.20
65038;DHT22;51605;47.040;15.294;2024-03-17T12:13:43;21.20;51.10
65038;DHT22;51605;47.040;15.294;2024-03-17T12:16:10;21.20;51.00
65038;DHT22;51605;47.040;15.294;2024-03-17T12:18:36;21.20;51.10
65038;DHT22;51605;47.040;15.294;2024-03-17T12:21:12;21.20;51.10
65038;DHT22;51605;47.040;15.294;2024-03-17T12:23:39;21.20;51.10
65038;DHT22;51605;47.040;15.294;2024-03-17T12:26:05;21.20;51.10
65038;DHT22;51605;47.040;15.294;2024-03-17T12:28:30;21.20;51.20
65038;DHT22;51605;47.040;15.294;2024-03-17T12:30:56;21.20;51.20
65038;DHT22;51605;47.040;15.294;2024-03-17T12:33:24;21.20;51.20
65038;DHT22;51605;47.040;15.294;2024-03-17T12:35:49;21.20;51.10
65038;DHT22;51605;47.040;15.294;2024-03-17T12:38:21;21.20;51.10
65038;DHT22;51605;47.040;15.294;2024-03-17T12:40:47;21.20;51.10
65038;DHT22;51605;47.040;15.294;2024-03-17T12:43:13;21.20;51.00
65038;DHT22;51605;47.040;15.294;2024-03-17T12:45:39;21.20;51.10
65038;DHT22;51605;47.040;15.294;2024-03-17T12:48:10;21.20;51.00
65038;DHT22;51605;47.040;15.294;2024-03-17T12:50:42;21.20;51.10
65038;DHT22;51605;47.040;15.294;2024-03-17T12:53:13;21.20;51.00
65038;DHT22;51605;47.040;15.294;2024-03-17T12:55:41;21.20;50.90
65038;DHT22;51605;47.040;15.294;2024-03-17T12:58:25;21.20;50.90
65038;DHT22;51605;47.040;15.294;2024-03-17T13:01:11;21.20;50.90
65038;DHT22;51605;47.040;15.294;2024-03-17T13:03:38;21.20;50.90
65038;DHT22;51605;47.040;15.294;2024-03-17T13:06:05;21.20;50.90
65038;DHT22;51605;47.040;15.294;2024-03-17T13:08:32;21.20;50.80
65038;DHT22;51605;47.040;15.294;2024-03-17T13:11:00;21.20;50.70
65038;DHT22;51605;47.040;15.294;2024-03-17T13:13:29;21.30;50.80
65038;DHT22;51605;47.040;15.294;2024-03-17T13:15:54;21.20;50.70
65038;DHT22;51605;47.040;15.294;2024-03-17T13:18:20;21.20;50.80
65038;DHT22;51605;47.040;15.294;2024-03-17T13:20:49;21.20;50.80
65038;DHT22;51605;47.040;15.294;2024-03-17T13:23:23;21.20;50.70
65038;DHT22;51605;47.040;15.294;2024-03-17T13:25:49;21.20;50.70
65038;DHT22;51605;47.040;15.294;2024-03-17T13:28:15;21.20;50.70
65038;DHT22;51605;47.040;15.294;2024-03-17T13:30:41;21.20;50.70
65038;DHT22;51605;47.040;15.294;2024-03-17T13:33:07;21.20;50.60
65038;DHT22;51605;47.040;15.294;2024-03-17T13:35:37;21.20;50.60
65038;DHT22;51605;47.040;15.294;2024-03-17T13:38:06;21.20;50.50
65038;DHT22;51605;47.040;15.294;2024-03-17T13:40:32;21.20;50.60
65038;DHT22;51605;47.040;15.294;2024-03-17T13:42:57;21.20;50.60
65038;DHT22;51605;47.040;15.294;2024-03-17T13:45:24;21.20;50.60
65038;DHT22;51605;47.040;15.294;2024-03-17T13:47:54;21.20;50.70
65038;DHT22;51605;47.040;15.294;2024-03-17T13:50:21;21.20;50.70
65038;DHT22;51605;47.040;15.294;2024-03-17T13:52:46;21.20;50.30
65038;DHT22;51605;47.040;15.294;2024-03-17T13:55:20;21.20;50.40
65038;DHT22;51605;47.040;15.294;2024-03-17T13:57:46;21.20;50.50
65038;DHT22;51605;47.040;15.294;2024-03-17T14:00:12;21.20;50.40
65038;DHT22;51605;47.040;15.294;2024-03-17T14:02:44;21.20;50.50
65038;DHT22;51605;47.040;15.294;2024-03-17T14:05:12;21.20;50.50
65038;DHT22;51605;47.040;15.294;2024-03-17T14:07:37;21.30;50.60
65038;DHT22;51605;47.040;15.294;2024-03-17T14:10:03;21.30;50.60
65038;DHT22;51605;47.040;15.294;2024-03-17T14:12:28;21.20;50.50
65038;DHT22;51605;47.040;15.294;2024-03-17T14:14:55;21.20;50.50
65038;DHT22;51605;47.040;15.294;2024-03-17T14:17:21;21.20;50.70
65038;DHT22;51605;47.040;15.294;2024-03-17T14:19:47;21.20;50.70
65038;DHT22;51605;47.040;15.294;2024-03-17T14:22:12;21.20;50.70
65038;DHT22;51605;47.040;15.294;2024-03-17T14:24:38;21.20;50.80
65038;DHT22;51605;47.040;15.294;2024-03-17T14:27:06;21.20;50.80
65038;DHT22;51605;47.040;15.294;2024-03-17T14:29:31;21.20;50.70
65038;DHT22;51605;47.040;15.294;2024-03-17T14:31:57;21.20;50.80
65038;DHT22;51605;47.040;15.294;2024-03-17T14:34:22;21.20;50.80
65038;DHT22;51605;47.040;15.294;2024-03-17T14:36:48;21.20;50.80
65038;DHT22;51605;47.040;15.294;2024-03-17T14:39:13;21.20;50.90
65038;DHT22;51605;47.040;15.294;2024-03-17T14:41:39;21.20;50.80
65038;DHT22;51605;47.040;15.294;2024-03-17T14:44:04;21.20;50.80
65038;DHT22;51605;47.040;15.294;2024-03-17T14:46:30;21.20;50.70
65038;DHT22;51605;47.040;15.294;2024-03-17T14:48:55;21.20;50.80
65038;DHT22;51605;47.040;15.294;2024-03-17T14:51:21;21.20;50.80
65038;DHT22;51605;47.040;15.294;2024-03-17T14:53:47;21.20;50.80
65038;DHT22;51605;47.040;15.294;2024-03-17T14:56:18;21.20;50.80
65038;DHT22;51605;47.040;15.294;2024-03-17T14:58:44;21.20;50.80
65038;DHT22;51605;47.040;15.294;2024-03-17T15:01:10;21.20;50.80
65038;DHT22;51605;47.040;15.294;2024-03-17T15:03:35;21.20;50.80
65038;DHT22;51605;47.040;15.294;2024-03-17T15:06:01;21.20;50.80
65038;DHT22;51605;47.040;15.294;2024-03-17T15:08:29;21.20;50.90
65038;DHT22;51605;47.040;15.294;2024-03-17T15:10:55;21.20;50.90
65038;DHT22;51605;47.040;15.294;2024-03-17T15:13:21;21.20;50.90
65038;DHT22;51605;47.040;15.294;2024-03-17T15:15:49;21.20;50.90
65038;DHT22;51605;47.040;15.294;2024-03-17T15:18:14;21.20;50.80
65038;DHT22;51605;47.040;15.294;2024-03-17T15:20:41;21.20;50.80
65038;DHT22;51605;47.040;15.294;2024-03-17T15:23:07;21.20;50.80
65038;DHT22;51605;47.040;15.294;2024-03-17T15:25:32;21.20;50.90
65038;DHT22;51605;47.040;15.294;2024-03-17T15:27:58;21.20;50.80
65038;DHT22;51605;47.040;15.294;2024-03-17T15:30:26;21.20;50.80
65038;DHT22;51605;47.040;15.294;2024-03-17T15:32:54;21.20;50.80